Time;durP1;ratioP1;P1;durP2;ratioP2;P2;SDS_P1;SDS_P2;PMS_P1;PMS_P2;Temp;Humidity;BMP_temperature;BMP_pressure;BME280_temperature;BME280_humidity;BME280_pressure;Samples;Min_cycle;Max_cycle;Signal;HPM_P1;HPM_P2
2023/04/17 00:00:56;;;;;;;;;;;12.50;69.10;;;;;;5098965;27;92498;-43
2023/04/17 00:03:22;;;;;;;;;;;12.50;69.10;;;;;;5098835;27;94585;-43
2023/04/17 00:05:48;;;;;;;;;;;12.50;69.10;;;;;;5101599;27;94746;-45
2023/04/17 00:08:13;;;;;;;;;;;12.50;69.10;;;;;;5101921;27;94188;-44
2023/04/17 00:10:39;;;;;;;;;;;12.50;69.10;;;;;;5100952;27;94769;-43
2023/04/17 00:13:04;;;;;;;;;;;12.50;69.10;;;;;;5102513;27;92201;-43
2023/04/17 00:15:30;;;;;;;;;;;12.50;69.10;;;;;;5100642;27;95616;-44
2023/04/17 00:17:55;;;;;;;;;;;12.50;69.10;;;;;;5101363;27;94756;-43
2023/04/17 00:20:21;;;;;;;;;;;12.50;69.10;;;;;;5101716;27;92486;-43
2023/04/17 00:22:46;;;;;;;;;;;12.50;69.20;;;;;;5101555;27;93945;-43
2023/04/17 00:25:13;;;;;;;;;;;12.50;69.10;;;;;;5101084;27;94553;-43
2023/04/17 00:27:42;;;;;;;;;;;12.40;69.10;;;;;;5105549;27;91527;-43
2023/04/17 00:30:08;;;;;;;;;;;12.40;69.10;;;;;;5101263;27;94375;-43
2023/04/17 00:32:33;;;;;;;;;;;12.40;69.10;;;;;;5093862;27;92035;-43
2023/04/17 00:34:59;;;;;;;;;;;12.40;69.20;;;;;;5101659;27;93158;-43
2023/04/17 00:37:24;;;;;;;;;;;12.40;69.20;;;;;;5100817;27;94350;-43
2023/04/17 00:39:50;;;;;;;;;;;12.40;69.20;;;;;;5101797;27;92370;-43
2023/04/17 00:42:15;;;;;;;;;;;12.40;69.20;;;;;;5101577;27;93969;-43
2023/04/17 00:44:41;;;;;;;;;;;12.40;69.20;;;;;;5101207;27;94728;-43
2023/04/17 00:47:06;;;;;;;;;;;12.40;69.20;;;;;;5101696;27;92122;-43
2023/04/17 00:49:32;;;;;;;;;;;12.40;69.20;;;;;;5104200;27;94130;-44
2023/04/17 00:51:57;;;;;;;;;;;12.40;69.20;;;;;;5097889;27;92119;-43
2023/04/17 00:54:23;;;;;;;;;;;12.40;69.20;;;;;;5101354;27;93338;-43
2023/04/17 00:56:49;;;;;;;;;;;12.30;69.20;;;;;;5100972;27;94563;-43
2023/04/17 00:59:16;;;;;;;;;;;12.40;69.20;;;;;;5100707;27;93060;-44
2023/04/17 01:01:41;;;;;;;;;;;12.40;69.20;;;;;;5101220;27;94168;-44
2023/04/17 01:04:08;;;;;;;;;;;12.30;69.20;;;;;;5100372;27;94776;-45
2023/04/17 01:06:34;;;;;;;;;;;12.30;69.20;;;;;;5101036;27;92130;-43
2023/04/17 01:09:00;;;;;;;;;;;12.30;69.20;;;;;;5100949;27;93859;-44
2023/04/17 01:11:26;;;;;;;;;;;12.40;69.20;;;;;;5103608;27;94572;-43
2023/04/17 01:13:51;;;;;;;;;;;12.30;69.20;;;;;;5101041;27;92362;-43
2023/04/17 01:16:17;;;;;;;;;;;12.30;69.20;;;;;;5100832;27;93935;-43
2023/04/17 01:18:43;;;;;;;;;;;12.30;69.20;;;;;;5100899;27;92078;-43
2023/04/17 01:21:08;;;;;;;;;;;12.30;69.20;;;;;;5100903;27;94106;-43
2023/04/17 01:23:50;;;;;;;;;;;12.30;69.20;;;;;;5099453;27;93071;-43
2023/04/17 01:26:17;;;;;;;;;;;12.30;69.20;;;;;;5097274;27;92888;-43
2023/04/17 01:28:43;;;;;;;;;;;12.30;69.20;;;;;;5101044;27;93721;-43
2023/04/17 01:31:13;;;;;;;;;;;12.20;69.10;;;;;;5103501;27;93034;-43
2023/04/17 01:33:38;;;;;;;;;;;12.30;69.30;;;;;;5100490;27;93603;-43
2023/04/17 01:36:04;;;;;;;;;;;12.30;69.30;;;;;;5099683;27;94442;-43
2023/04/17 01:38:29;;;;;;;;;;;12.20;69.10;;;;;;5100527;27;92171;-44
2023/04/17 01:40:55;;;;;;;;;;;12.30;69.20;;;;;;5101213;27;94017;-43
2023/04/17 01:43:20;;;;;;;;;;;12.30;69.20;;;;;;5099839;27;94395;-43
2023/04/17 01:45:46;;;;;;;;;;;12.30;69.20;;;;;;5100524;27;92239;-44
2023/04/17 01:48:11;;;;;;;;;;;12.20;69.20;;;;;;5100003;27;94019;-43
2023/04/17 01:50:37;;;;;;;;;;;12.20;69.20;;;;;;5099707;27;94835;-43
2023/04/17 01:53:02;;;;;;;;;;;12.20;69.20;;;;;;5103843;27;92310;-43
2023/04/17 01:55:28;;;;;;;;;;;12.20;69.20;;;;;;5099934;27;94646;-43
2023/04/17 01:57:53;;;;;;;;;;;12.20;69.30;;;;;;5100718;27;92260;-43
2023/04/17 02:00:19;;;;;;;;;;;12.20;69.30;;;;;;5100681;27;93467;-43
2023/04/17 02:02:44;;;;;;;;;;;12.20;69.30;;;;;;5100109;27;93112;-43
2023/04/17 02:05:10;;;;;;;;;;;12.20;69.30;;;;;;5101004;27;91398;-44
2023/04/17 02:07:36;;;;;;;;;;;12.20;69.30;;;;;;5100380;27;92347;-43
2023/04/17 02:10:01;;;;;;;;;;;12.20;69.30;;;;;;5099699;27;94406;-43
2023/04/17 02:12:27;;;;;;;;;;;12.20;69.30;;;;;;5099320;27;93246;-43
2023/04/17 02:14:52;;;;;;;;;;;12.20;69.30;;;;;;5102357;27;94871;-43
2023/04/17 02:17:18;;;;;;;;;;;12.10;69.30;;;;;;5099885;27;92149;-44
2023/04/17 02:19:43;;;;;;;;;;;12.10;69.30;;;;;;5100476;27;92450;-44
2023/04/17 02:22:09;;;;;;;;;;;12.10;69.30;;;;;;5098968;27;94531;-43
2023/04/17 02:24:34;;;;;;;;;;;12.10;69.30;;;;;;5100297;27;92211;-44
2023/04/17 02:27:00;;;;;;;;;;;12.10;69.30;;;;;;5100019;27;94367;-43
2023/04/17 02:29:26;;;;;;;;;;;12.10;69.20;;;;;;5099071;27;93605;-43
2023/04/17 02:31:51;;;;;;;;;;;12.10;69.30;;;;;;5099672;27;92136;-43
2023/04/17 02:34:17;;;;;;;;;;;12.10;69.30;;;;;;5099998;27;94108;-43
2023/04/17 02:36:42;;;;;;;;;;;12.10;69.30;;;;;;5101668;27;95233;-43
2023/04/17 02:39:08;;;;;;;;;;;12.10;69.30;;;;;;5099771;27;95004;-43
2023/04/17 02:41:33;;;;;;;;;;;12.10;69.40;;;;;;5099218;27;94621;-43
2023/04/17 02:44:00;;;;;;;;;;;12.10;69.40;;;;;;5099757;27;92158;-43
2023/04/17 02:46:25;;;;;;;;;;;12.10;69.30;;;;;;5098052;27;92925;-44
2023/04/17 02:48:51;;;;;;;;;;;12.00;69.30;;;;;;5096958;27;94530;-44
2023/04/17 02:51:17;;;;;;;;;;;12.10;69.40;;;;;;5099488;27;92076;-43
2023/04/17 02:53:42;;;;;;;;;;;12.10;69.40;;;;;;5100305;27;92876;-43
2023/04/17 02:56:08;;;;;;;;;;;12.00;69.40;;;;;;5099319;27;93144;-43
2023/04/17 02:58:33;;;;;;;;;;;12.00;69.50;;;;;;5102994;27;92532;-43
2023/04/17 03:01:00;;;;;;;;;;;12.00;69.40;;;;;;5098338;27;95776;-43
2023/04/17 03:03:25;;;;;;;;;;;12.00;69.40;;;;;;5099648;27;92119;-43
2023/04/17 03:05:51;;;;;;;;;;;12.00;69.40;;;;;;5099224;27;93820;-43
2023/04/17 03:08:16;;;;;;;;;;;12.00;69.40;;;;;;5098719;27;94623;-43
2023/04/17 03:10:42;;;;;;;;;;;12.00;69.40;;;;;;5099426;27;92177;-43
2023/04/17 03:13:07;;;;;;;;;;;12.00;69.40;;;;;;5099072;27;94107;-43
2023/04/17 03:15:34;;;;;;;;;;;12.00;69.50;;;;;;5098412;27;94402;-43
2023/04/17 03:17:59;;;;;;;;;;;12.00;69.50;;;;;;5099866;27;91435;-43
2023/04/17 03:20:25;;;;;;;;;;;11.90;69.40;;;;;;5101853;27;93370;-43
2023/04/17 03:22:50;;;;;;;;;;;12.00;69.40;;;;;;5098737;27;92191;-43
2023/04/17 03:25:16;;;;;;;;;;;11.90;70.00;;;;;;5098553;27;94128;-43
2023/04/17 03:27:41;;;;;;;;;;;12.00;70.10;;;;;;5098795;27;93099;-43
2023/04/17 03:30:07;;;;;;;;;;;11.90;69.40;;;;;;5099557;27;92200;-43
2023/04/17 03:32:33;;;;;;;;;;;11.90;69.40;;;;;;5099052;27;93853;-43
2023/04/17 03:34:58;;;;;;;;;;;11.90;69.40;;;;;;5098485;27;94551;-43
2023/04/17 03:37:24;;;;;;;;;;;11.90;69.40;;;;;;5098723;27;92233;-43
2023/04/17 03:39:49;;;;;;;;;;;11.90;69.40;;;;;;5101760;27;93854;-43
2023/04/17 03:42:15;;;;;;;;;;;11.90;69.40;;;;;;5102235;27;91365;-44
2023/04/17 03:44:40;;;;;;;;;;;11.90;69.40;;;;;;5102451;27;92098;-43
2023/04/17 03:47:06;;;;;;;;;;;11.80;69.40;;;;;;5102328;27;93093;-43
2023/04/17 03:49:32;;;;;;;;;;;11.80;69.40;;;;;;5101817;27;93482;-43
2023/04/17 03:51:57;;;;;;;;;;;11.90;69.50;;;;;;5102714;27;94654;-43
2023/04/17 03:54:23;;;;;;;;;;;11.80;69.60;;;;;;5101671;27;94522;-43
2023/04/17 03:56:48;;;;;;;;;;;11.80;69.50;;;;;;5102329;27;92066;-43
2023/04/17 03:59:14;;;;;;;;;;;11.80;69.50;;;;;;5102349;27;94065;-43
2023/04/17 04:01:39;;;;;;;;;;;11.80;69.50;;;;;;5104966;27;94531;-43
2023/04/17 04:04:05;;;;;;;;;;;11.80;69.50;;;;;;5102414;27;93906;-43
2023/04/17 04:06:30;;;;;;;;;;;11.80;69.50;;;;;;5102270;27;94004;-44
2023/04/17 04:08:56;;;;;;;;;;;11.80;69.50;;;;;;5101993;27;92292;-43
2023/04/17 04:11:22;;;;;;;;;;;11.80;69.50;;;;;;5102642;27;92202;-43
2023/04/17 04:13:47;;;;;;;;;;;11.80;69.50;;;;;;5096593;27;95344;-43
2023/04/17 04:16:13;;;;;;;;;;;11.80;69.50;;;;;;5101793;27;92426;-43
2023/04/17 04:18:38;;;;;;;;;;;11.80;69.50;;;;;;5102143;27;92373;-43
2023/04/17 04:21:05;;;;;;;;;;;11.80;69.50;;;;;;5101143;27;94365;-43
2023/04/17 04:23:30;;;;;;;;;;;11.70;69.60;;;;;;5104920;27;92148;-43
2023/04/17 04:25:56;;;;;;;;;;;11.70;69.50;;;;;;5101331;27;94685;-43
2023/04/17 04:28:22;;;;;;;;;;;11.70;69.50;;;;;;5102010;27;92174;-43
2023/04/17 04:30:49;;;;;;;;;;;11.70;69.60;;;;;;5102313;27;94302;-43
2023/04/17 04:33:18;;;;;;;;;;;11.70;69.70;;;;;;5101092;27;94548;-43
2023/04/17 04:35:46;;;;;;;;;;;11.70;69.70;;;;;;5101559;27;92166;-43
2023/04/17 04:38:12;;;;;;;;;;;11.70;69.70;;;;;;5100982;27;95593;-43
2023/04/17 04:40:38;;;;;;;;;;;11.70;69.70;;;;;;5096665;27;94724;-43
2023/04/17 04:43:05;;;;;;;;;;;11.70;69.60;;;;;;5101363;27;92517;-44
2023/04/17 04:45:31;;;;;;;;;;;11.70;69.60;;;;;;5104228;27;93712;-43
2023/04/17 04:47:56;;;;;;;;;;;11.70;69.70;;;;;;5101423;27;92112;-43
2023/04/17 04:50:22;;;;;;;;;;;11.70;69.70;;;;;;5101269;27;92897;-43
2023/04/17 04:52:47;;;;;;;;;;;11.70;69.60;;;;;;5100242;27;94638;-44
2023/04/17 04:55:13;;;;;;;;;;;11.70;69.60;;;;;;5098459;27;91447;-43
2023/04/17 04:57:38;;;;;;;;;;;11.70;69.70;;;;;;5101055;27;92996;-43
2023/04/17 05:00:05;;;;;;;;;;;11.70;69.60;;;;;;5101202;27;92408;-43
2023/04/17 05:02:30;;;;;;;;;;;11.60;69.60;;;;;;5100870;27;93083;-43
2023/04/17 05:04:56;;;;;;;;;;;11.70;69.60;;;;;;5101177;27;94682;-43
2023/04/17 05:07:21;;;;;;;;;;;11.70;69.80;;;;;;5104200;27;93149;-43
2023/04/17 05:09:47;;;;;;;;;;;11.60;69.70;;;;;;5101118;27;93701;-43
2023/04/17 05:12:12;;;;;;;;;;;11.60;69.70;;;;;;5100281;27;94698;-43
2023/04/17 05:14:38;;;;;;;;;;;11.60;69.70;;;;;;5100489;27;92806;-43
2023/04/17 05:17:03;;;;;;;;;;;11.60;69.80;;;;;;5101164;27;93696;-43
2023/04/17 05:19:29;;;;;;;;;;;11.60;69.70;;;;;;5100509;27;93776;-43
2023/04/17 05:21:55;;;;;;;;;;;11.60;69.60;;;;;;5100800;27;92618;-43
2023/04/17 05:24:20;;;;;;;;;;;11.60;69.70;;;;;;5100267;27;94468;-43
2023/04/17 05:26:45;;;;;;;;;;;11.60;69.60;;;;;;5099540;27;95690;-44
2023/04/17 05:29:11;;;;;;;;;;;11.60;69.60;;;;;;5103952;27;92250;-44
2023/04/17 05:31:36;;;;;;;;;;;11.60;69.60;;;;;;5100520;27;93262;-43
2023/04/17 05:34:02;;;;;;;;;;;11.60;69.70;;;;;;5100745;27;92237;-43
2023/04/17 05:36:30;;;;;;;;;;;11.60;69.60;;;;;;5100213;27;93732;-44
2023/04/17 05:38:55;;;;;;;;;;;11.60;69.60;;;;;;5099915;27;94804;-43
2023/04/17 05:41:21;;;;;;;;;;;11.60;69.60;;;;;;5100400;27;92162;-44
2023/04/17 05:43:46;;;;;;;;;;;11.60;69.60;;;;;;5100832;27;93881;-43
2023/04/17 05:46:12;;;;;;;;;;;11.60;70.40;;;;;;5100144;27;94453;-43
2023/04/17 05:48:37;;;;;;;;;;;11.60;69.80;;;;;;5103544;27;92226;-43
2023/04/17 05:51:03;;;;;;;;;;;11.60;69.60;;;;;;5098940;27;95497;-44
2023/04/17 05:53:29;;;;;;;;;;;11.60;69.70;;;;;;5100104;27;92878;-43
2023/04/17 05:55:55;;;;;;;;;;;11.60;69.60;;;;;;5100333;27;93720;-43
2023/04/17 05:58:20;;;;;;;;;;;11.60;69.60;;;;;;5099987;27;94094;-43
2023/04/17 06:00:46;;;;;;;;;;;11.60;69.60;;;;;;5100203;27;92287;-43
2023/04/17 06:03:12;;;;;;;;;;;11.60;69.60;;;;;;5099501;27;94244;-43
2023/04/17 06:05:37;;;;;;;;;;;11.60;69.50;;;;;;5099117;27;92987;-43
2023/04/17 06:08:03;;;;;;;;;;;11.60;70.20;;;;;;5100572;27;92079;-43
2023/04/17 06:10:28;;;;;;;;;;;11.60;69.50;;;;;;5102576;27;92938;-43
2023/04/17 06:12:54;;;;;;;;;;;11.60;69.40;;;;;;5099712;27;92240;-43
2023/04/17 06:15:20;;;;;;;;;;;11.70;69.50;;;;;;5099062;27;93696;-43
2023/04/17 06:17:45;;;;;;;;;;;11.70;69.50;;;;;;5098929;27;94539;-43
2023/04/17 06:20:11;;;;;;;;;;;11.70;69.40;;;;;;5100191;27;92507;-43
2023/04/17 06:22:37;;;;;;;;;;;11.70;69.50;;;;;;5099703;27;94182;-43
2023/04/17 06:25:02;;;;;;;;;;;11.60;69.40;;;;;;5099349;27;94747;-43
2023/04/17 06:27:28;;;;;;;;;;;11.70;69.50;;;;;;5095766;27;92330;-43
2023/04/17 06:29:54;;;;;;;;;;;11.60;69.40;;;;;;5099734;27;93915;-43
2023/04/17 06:32:19;;;;;;;;;;;11.70;69.60;;;;;;5102713;27;93640;-43
2023/04/17 06:34:45;;;;;;;;;;;11.70;69.70;;;;;;5100046;27;92725;-43
2023/04/17 06:37:10;;;;;;;;;;;11.70;69.70;;;;;;5099472;27;93081;-43
2023/04/17 06:39:36;;;;;;;;;;;11.70;69.60;;;;;;5099262;27;93115;-43
2023/04/17 06:42:01;;;;;;;;;;;11.70;69.80;;;;;;5099413;27;94693;-43
2023/04/17 06:44:27;;;;;;;;;;;11.70;69.70;;;;;;5099249;27;94934;-43
2023/04/17 06:46:53;;;;;;;;;;;11.70;69.70;;;;;;5099575;27;92176;-43
2023/04/17 06:49:18;;;;;;;;;;;11.70;69.80;;;;;;5099494;27;93924;-43
2023/04/17 06:51:46;;;;;;;;;;;11.70;69.90;;;;;;5098767;27;94654;-43
2023/04/17 06:54:11;;;;;;;;;;;11.70;69.80;;;;;;5102634;27;92139;-43
2023/04/17 06:56:37;;;;;;;;;;;11.70;70.00;;;;;;5099829;27;92408;-43
2023/04/17 06:59:02;;;;;;;;;;;11.70;69.90;;;;;;5099309;27;92586;-43
2023/04/17 07:01:30;;;;;;;;;;;11.70;69.90;;;;;;5099487;27;92160;-43
2023/04/17 07:03:55;;;;;;;;;;;11.70;69.90;;;;;;5097799;27;95552;-43
2023/04/17 07:06:22;;;;;;;;;;;11.70;69.90;;;;;;5098216;27;92187;-43
2023/04/17 07:08:47;;;;;;;;;;;11.70;69.90;;;;;;5099341;27;92668;-43
2023/04/17 07:11:13;;;;;;;;;;;11.70;69.90;;;;;;5094409;27;94010;-43
2023/04/17 07:13:38;;;;;;;;;;;11.70;70.00;;;;;;5098753;27;92116;-43
2023/04/17 07:16:04;;;;;;;;;;;11.70;69.90;;;;;;5101183;27;93711;-43
2023/04/17 07:18:30;;;;;;;;;;;11.70;70.00;;;;;;5099152;27;92272;-44
2023/04/17 07:20:55;;;;;;;;;;;11.70;70.60;;;;;;5099616;27;92084;-43
2023/04/17 07:23:21;;;;;;;;;;;11.70;70.00;;;;;;5097913;27;94868;-43
2023/04/17 07:25:47;;;;;;;;;;;11.70;70.00;;;;;;5095193;27;92202;-44
2023/04/17 07:28:13;;;;;;;;;;;11.70;70.00;;;;;;5098504;27;93991;-44
2023/04/17 07:30:40;;;;;;;;;;;11.70;70.00;;;;;;5098381;27;94516;-44
2023/04/17 07:33:05;;;;;;;;;;;11.70;70.00;;;;;;5098844;27;92161;-43
2023/04/17 07:35:31;;;;;;;;;;;11.70;70.00;;;;;;5100265;27;95959;-44
2023/04/17 07:37:57;;;;;;;;;;;11.70;70.00;;;;;;5099002;27;92138;-43
2023/04/17 07:40:23;;;;;;;;;;;11.70;70.00;;;;;;5098936;27;93789;-45
2023/04/17 07:42:49;;;;;;;;;;;11.70;70.00;;;;;;5098536;27;94383;-43
2023/04/17 07:45:14;;;;;;;;;;;11.70;70.00;;;;;;5098059;27;91460;-44
2023/04/17 07:47:40;;;;;;;;;;;11.70;70.00;;;;;;5096121;27;92957;-43
2023/04/17 07:50:05;;;;;;;;;;;11.70;70.00;;;;;;5098214;27;95134;-44
2023/04/17 07:52:31;;;;;;;;;;;11.70;70.00;;;;;;5097820;27;93605;-43
2023/04/17 07:54:56;;;;;;;;;;;11.70;70.00;;;;;;5098996;27;93305;-44
2023/04/17 07:57:25;;;;;;;;;;;11.80;70.10;;;;;;5097316;27;94344;-43
2023/04/17 07:59:51;;;;;;;;;;;11.70;70.00;;;;;;5098701;27;93545;-44
2023/04/17 08:02:17;;;;;;;;;;;11.80;70.10;;;;;;5097879;27;94516;-44
2023/04/17 08:04:43;;;;;;;;;;;11.80;70.10;;;;;;5098290;27;92201;-44
2023/04/17 08:07:10;;;;;;;;;;;11.80;70.10;;;;;;5098193;27;94083;-44
2023/04/17 08:09:36;;;;;;;;;;;11.80;70.00;;;;;;5098124;27;93971;-43
2023/04/17 08:12:01;;;;;;;;;;;11.80;70.00;;;;;;5098747;27;92513;-43
2023/04/17 08:14:27;;;;;;;;;;;11.80;70.30;;;;;;5098272;27;92567;-43
2023/04/17 08:16:52;;;;;;;;;;;11.80;69.90;;;;;;5096954;27;95329;-44
2023/04/17 08:19:18;;;;;;;;;;;11.80;69.90;;;;;;5101489;27;92206;-45
2023/04/17 08:21:45;;;;;;;;;;;11.80;69.90;;;;;;5097894;27;94819;-44
2023/04/17 08:24:11;;;;;;;;;;;11.80;69.80;;;;;;5097962;27;92219;-44
2023/04/17 08:26:36;;;;;;;;;;;11.80;69.90;;;;;;5098452;27;93934;-43
2023/04/17 08:29:03;;;;;;;;;;;11.90;69.80;;;;;;5101695;27;94863;-44
2023/04/17 08:31:29;;;;;;;;;;;11.80;69.70;;;;;;5102037;27;92047;-43
2023/04/17 08:33:54;;;;;;;;;;;11.80;69.90;;;;;;5102659;27;93747;-43
2023/04/17 08:36:20;;;;;;;;;;;11.80;69.90;;;;;;5101174;27;94683;-44
2023/04/17 08:38:47;;;;;;;;;;;11.80;70.10;;;;;;5102157;27;92312;-43
2023/04/17 08:41:23;;;;;;;;;;;11.80;70.00;;;;;;5104130;27;93982;-44
2023/04/17 08:43:52;;;;;;;;;;;11.80;70.00;;;;;;5101541;27;92127;-44
2023/04/17 08:46:21;;;;;;;;;;;11.90;70.20;;;;;;5101820;27;94007;-43
2023/04/17 08:48:46;;;;;;;;;;;11.80;70.20;;;;;;5101006;27;94662;-43
2023/04/17 08:51:12;;;;;;;;;;;11.80;70.20;;;;;;5101466;27;92139;-43
2023/04/17 08:53:38;;;;;;;;;;;11.90;70.40;;;;;;5097233;27;93919;-43
2023/04/17 08:56:04;;;;;;;;;;;11.90;70.30;;;;;;5100832;27;94535;-43
2023/04/17 08:58:33;;;;;;;;;;;11.90;70.30;;;;;;5101751;27;93315;-44
2023/04/17 09:01:18;;;;;;;;;;;11.90;70.50;;;;;;5098076;27;93088;-43
2023/04/17 09:03:45;;;;;;;;;;;11.90;70.40;;;;;;5103864;27;94440;-43
2023/04/17 09:06:10;;;;;;;;;;;11.90;70.60;;;;;;5100401;27;93787;-43
2023/04/17 09:08:37;;;;;;;;;;;11.90;70.50;;;;;;5100707;27;94547;-43
2023/04/17 09:11:02;;;;;;;;;;;11.90;70.60;;;;;;5101026;27;92114;-43
2023/04/17 09:13:29;;;;;;;;;;;11.90;70.80;;;;;;5100840;27;94056;-43
2023/04/17 09:16:04;;;;;;;;;;;11.90;70.70;;;;;;5100728;27;93679;-43
2023/04/17 09:18:30;;;;;;;;;;;11.90;70.80;;;;;;5098787;27;92242;-44
2023/04/17 09:20:57;;;;;;;;;;;11.90;70.80;;;;;;5099787;27;94212;-43
2023/04/17 09:23:23;;;;;;;;;;;11.90;70.90;;;;;;5100595;27;93673;-43
2023/04/17 09:26:04;;;;;;;;;;;11.90;70.90;;;;;;5104348;27;92475;-43
2023/04/17 09:28:34;;;;;;;;;;;11.90;71.00;;;;;;5099720;27;94237;-43
2023/04/17 09:31:04;;;;;;;;;;;11.90;70.90;;;;;;5100275;27;93068;-43
2023/04/17 09:33:30;;;;;;;;;;;11.90;71.20;;;;;;5100731;27;94934;-43
2023/04/17 09:35:55;;;;;;;;;;;11.90;71.20;;;;;;5100154;27;94698;-43
2023/04/17 09:38:35;;;;;;;;;;;11.90;71.10;;;;;;5101001;27;92127;-43
2023/04/17 09:41:00;;;;;;;;;;;11.90;71.00;;;;;;5097450;27;92323;-43
2023/04/17 09:43:39;;;;;;;;;;;11.80;71.00;;;;;;5099837;27;94472;-43
2023/04/17 09:46:04;;;;;;;;;;;11.90;70.90;;;;;;5103842;27;92059;-43
2023/04/17 09:48:30;;;;;;;;;;;11.90;71.10;;;;;;5100650;27;91668;-43
2023/04/17 09:50:56;;;;;;;;;;;11.90;71.00;;;;;;5100428;27;92303;-43
2023/04/17 09:53:21;;;;;;;;;;;11.90;70.90;;;;;;5100519;27;94046;-43
2023/04/17 09:55:48;;;;;;;;;;;11.90;70.90;;;;;;5099235;27;95581;-43
2023/04/17 09:58:14;;;;;;;;;;;11.90;70.70;;;;;;5100405;27;92522;-43
2023/04/17 10:00:40;;;;;;;;;;;11.90;70.80;;;;;;5100556;27;94068;-43
2023/04/17 10:03:05;;;;;;;;;;;11.90;70.80;;;;;;5099947;27;95268;-43
2023/04/17 10:05:31;;;;;;;;;;;11.90;70.70;;;;;;5100425;27;92155;-43
2023/04/17 10:07:56;;;;;;;;;;;11.90;70.70;;;;;;5102745;27;94056;-43
2023/04/17 10:10:22;;;;;;;;;;;12.00;70.80;;;;;;5100512;27;92302;-43
2023/04/17 10:12:48;;;;;;;;;;;11.90;70.80;;;;;;5100708;27;93988;-43
2023/04/17 10:15:14;;;;;;;;;;;12.00;70.80;;;;;;5099220;27;94964;-43
2023/04/17 10:17:40;;;;;;;;;;;11.90;70.80;;;;;;5096060;27;92332;-44
2023/04/17 10:20:18;;;;;;;;;;;11.90;70.90;;;;;;5099424;27;94183;-43
2023/04/17 10:22:44;;;;;;;;;;;11.90;71.00;;;;;;5099453;27;94435;-43
2023/04/17 10:25:10;;;;;;;;;;;11.90;71.00;;;;;;5099894;27;92344;-43
2023/04/17 10:27:36;;;;;;;;;;;11.90;70.90;;;;;;5100199;27;93499;-43
2023/04/17 10:30:02;;;;;;;;;;;12.00;71.00;;;;;;5102604;27;94409;-43
2023/04/17 10:32:29;;;;;;;;;;;11.90;70.80;;;;;;5099789;27;93827;-47
2023/04/17 10:34:55;;;;;;;;;;;12.00;70.80;;;;;;5099311;27;93155;-43
2023/04/17 10:37:43;;;;;;;;;;;12.00;71.40;;;;;;5099928;27;91547;-43
2023/04/17 10:40:10;;;;;;;;;;;12.00;71.30;;;;;;5098327;27;93114;-43
2023/04/17 10:42:35;;;;;;;;;;;12.00;71.00;;;;;;5099083;27;94796;-42
2023/04/17 10:45:04;;;;;;;;;;;12.00;71.10;;;;;;5099307;27;93162;-42
2023/04/17 10:47:31;;;;;;;;;;;12.00;71.10;;;;;;5099558;27;94859;-42
2023/04/17 10:49:58;;;;;;;;;;;12.00;71.40;;;;;;5098418;27;94569;-42
2023/04/17 10:52:44;;;;;;;;;;;12.00;71.10;;;;;;5102596;27;92118;-42
2023/04/17 10:55:15;;;;;;;;;;;12.00;71.10;;;;;;5097957;27;93247;-42
2023/04/17 10:57:50;;;;;;;;;;;12.00;71.50;;;;;;5095344;27;93977;-49
2023/04/17 11:00:17;;;;;;;;;;;12.00;72.40;;;;;;5099261;27;93973;-43
2023/04/17 11:02:49;;;;;;;;;;;12.10;72.70;;;;;;5099118;27;93839;-41
2023/04/17 11:05:15;;;;;;;;;;;12.00;70.50;;;;;;5095678;27;92558;-41
2023/04/17 11:07:42;;;;;;;;;;;12.10;70.50;;;;;;5099382;27;92496;-42
2023/04/17 11:10:08;;;;;;;;;;;12.10;70.50;;;;;;5097747;27;95302;-42
2023/04/17 11:12:34;;;;;;;;;;;12.10;70.00;;;;;;5099445;27;92138;-42
2023/04/17 11:15:00;;;;;;;;;;;12.10;69.40;;;;;;5101472;27;93906;-42
2023/04/17 11:17:26;;;;;;;;;;;12.10;69.70;;;;;;5095085;27;92154;-42
2023/04/17 11:19:52;;;;;;;;;;;12.10;69.50;;;;;;5098891;27;94020;-42
2023/04/17 11:22:18;;;;;;;;;;;12.10;69.60;;;;;;5098844;27;93346;-42
2023/04/17 11:24:43;;;;;;;;;;;12.10;69.20;;;;;;5098877;27;92252;-42
2023/04/17 11:27:09;;;;;;;;;;;12.20;69.70;;;;;;5100166;27;92619;-42
2023/04/17 11:29:34;;;;;;;;;;;12.20;69.60;;;;;;5098390;27;94459;-42
2023/04/17 11:32:00;;;;;;;;;;;12.10;69.70;;;;;;5098807;27;92024;-43
2023/04/17 11:34:26;;;;;;;;;;;12.20;69.70;;;;;;5094478;27;93179;-42
2023/04/17 11:36:52;;;;;;;;;;;12.20;69.80;;;;;;5101203;27;94335;-42
2023/04/17 11:39:18;;;;;;;;;;;12.20;69.90;;;;;;5098964;27;92415;-42
2023/04/17 11:41:45;;;;;;;;;;;12.20;70.00;;;;;;5098278;27;94581;-42
2023/04/17 11:44:11;;;;;;;;;;;12.20;70.00;;;;;;5099143;27;92380;-43
2023/04/17 11:46:37;;;;;;;;;;;12.20;70.10;;;;;;5094721;27;94207;-42
2023/04/17 11:49:03;;;;;;;;;;;12.20;70.10;;;;;;5098544;27;92928;-43
2023/04/17 11:51:30;;;;;;;;;;;12.20;70.00;;;;;;5099480;27;91443;-43
2023/04/17 11:53:55;;;;;;;;;;;12.20;70.10;;;;;;5098704;27;93261;-42
2023/04/17 11:56:22;;;;;;;;;;;12.20;70.10;;;;;;5101361;27;94538;-43
2023/04/17 11:58:55;;;;;;;;;;;12.20;70.10;;;;;;5097956;27;93012;-43
2023/04/17 12:01:24;;;;;;;;;;;12.30;70.10;;;;;;5098245;27;93074;-42
2023/04/17 12:03:50;;;;;;;;;;;12.30;70.10;;;;;;5101847;27;92158;-42
2023/04/17 12:06:16;;;;;;;;;;;12.30;70.20;;;;;;5101990;27;93806;-43
2023/04/17 12:08:44;;;;;;;;;;;12.30;70.00;;;;;;5101127;27;94651;-42
2023/04/17 12:11:26;;;;;;;;;;;12.30;70.10;;;;;;5102184;27;92171;-42
2023/04/17 12:13:52;;;;;;;;;;;12.30;70.00;;;;;;5101302;27;94077;-42
2023/04/17 12:16:18;;;;;;;;;;;12.40;70.20;;;;;;5102276;27;92802;-42
2023/04/17 12:18:44;;;;;;;;;;;12.40;70.10;;;;;;5105179;27;92340;-42
2023/04/17 12:21:10;;;;;;;;;;;12.40;70.10;;;;;;5101326;27;94643;-42
2023/04/17 12:23:35;;;;;;;;;;;12.40;70.20;;;;;;5101105;27;93177;-43
2023/04/17 12:26:01;;;;;;;;;;;12.40;70.30;;;;;;5102100;27;93805;-43
2023/04/17 12:28:26;;;;;;;;;;;12.40;70.30;;;;;;5101362;27;93145;-42
2023/04/17 12:30:52;;;;;;;;;;;12.40;70.20;;;;;;5097705;27;92188;-42
2023/04/17 12:33:17;;;;;;;;;;;12.40;70.20;;;;;;5101607;27;93782;-43
2023/04/17 12:35:43;;;;;;;;;;;12.40;70.20;;;;;;5101071;27;94749;-43
2023/04/17 12:38:08;;;;;;;;;;;12.40;70.60;;;;;;5101577;27;92311;-43
2023/04/17 12:40:34;;;;;;;;;;;12.40;70.40;;;;;;5104949;27;94124;-43
2023/04/17 12:42:59;;;;;;;;;;;12.40;70.50;;;;;;5101416;27;92283;-43
2023/04/17 12:45:25;;;;;;;;;;;12.40;70.50;;;;;;5101649;27;93761;-43
2023/04/17 12:47:50;;;;;;;;;;;12.40;70.50;;;;;;5100505;27;93927;-43
2023/04/17 12:50:16;;;;;;;;;;;12.40;70.40;;;;;;5101486;27;92604;-42
2023/04/17 12:52:41;;;;;;;;;;;12.40;70.50;;;;;;5099434;27;93819;-42
2023/04/17 12:55:07;;;;;;;;;;;12.40;70.60;;;;;;5098840;27;94569;-42
2023/04/17 12:57:34;;;;;;;;;;;12.50;70.50;;;;;;5101311;27;92598;-43
2023/04/17 12:59:59;;;;;;;;;;;12.50;70.50;;;;;;5101261;27;92382;-42
2023/04/17 13:02:25;;;;;;;;;;;12.50;70.30;;;;;;5103956;27;93375;-42
2023/04/17 13:04:51;;;;;;;;;;;12.50;70.50;;;;;;5101669;27;92932;-42
2023/04/17 13:07:17;;;;;;;;;;;12.50;70.30;;;;;;5100764;27;93179;-42
2023/04/17 13:09:43;;;;;;;;;;;12.50;70.40;;;;;;5100960;27;92805;-42
2023/04/17 13:12:08;;;;;;;;;;;12.50;70.40;;;;;;5100556;27;94409;-42
2023/04/17 13:14:34;;;;;;;;;;;12.60;70.40;;;;;;5099411;27;94595;-42
2023/04/17 13:17:00;;;;;;;;;;;12.60;70.40;;;;;;5096919;27;92214;-42
2023/04/17 13:19:25;;;;;;;;;;;12.60;70.40;;;;;;5100981;27;93995;-42
2023/04/17 13:21:51;;;;;;;;;;;12.60;70.40;;;;;;5100132;27;95019;-42
2023/04/17 13:24:16;;;;;;;;;;;12.60;70.40;;;;;;5103584;27;92212;-42
2023/04/17 13:26:42;;;;;;;;;;;12.60;70.40;;;;;;5100258;27;94564;-42
2023/04/17 13:29:08;;;;;;;;;;;12.70;70.30;;;;;;5101795;27;91324;-42
2023/04/17 13:31:33;;;;;;;;;;;12.70;70.30;;;;;;5100626;27;92785;-42
2023/04/17 13:34:00;;;;;;;;;;;12.70;70.30;;;;;;5100468;27;93033;-42
2023/04/17 13:36:26;;;;;;;;;;;12.70;70.20;;;;;;5100045;27;93964;-43
2023/04/17 13:38:51;;;;;;;;;;;12.70;70.10;;;;;;5100503;27;94827;-43
2023/04/17 13:41:17;;;;;;;;;;;12.80;70.70;;;;;;5099756;27;93890;-42
2023/04/17 13:43:43;;;;;;;;;;;12.80;70.10;;;;;;5099965;27;92242;-42
2023/04/17 13:46:08;;;;;;;;;;;12.80;70.10;;;;;;5103336;27;93662;-42
2023/04/17 13:48:34;;;;;;;;;;;12.80;70.20;;;;;;5100750;27;92638;-42
2023/04/17 13:51:00;;;;;;;;;;;12.80;70.20;;;;;;5100253;27;94081;-42
2023/04/17 13:53:25;;;;;;;;;;;12.80;70.40;;;;;;5096394;27;93633;-43
2023/04/17 13:55:51;;;;;;;;;;;12.80;70.50;;;;;;5100340;27;92240;-43
2023/04/17 13:58:16;;;;;;;;;;;12.70;70.70;;;;;;5100551;27;92064;-42
2023/04/17 14:00:42;;;;;;;;;;;12.70;70.90;;;;;;5099555;27;94024;-42
2023/04/17 14:03:07;;;;;;;;;;;12.70;70.80;;;;;;5096765;27;92275;-43
2023/04/17 14:05:34;;;;;;;;;;;12.80;70.70;;;;;;5103191;27;94582;-42
2023/04/17 14:07:59;;;;;;;;;;;12.70;70.60;;;;;;5100242;27;92156;-42
2023/04/17 14:10:25;;;;;;;;;;;12.80;70.40;;;;;;5099810;27;93950;-43